sensor_id;sensor_type;location;lat;lon;timestamp;P1;durP1;ratioP1;P2;durP2;ratioP2
35022;SDS011;21214;44.912;8.204;2022-08-11T00:01:53;3.63;;;2.95;;
35022;SDS011;21214;44.912;8.204;2022-08-11T00:04:21;4.00;;;2.88;;
35022;SDS011;21214;44.912;8.204;2022-08-11T00:06:48;3.00;;;2.67;;
35022;SDS011;21214;44.912;8.204;2022-08-11T00:09:17;3.70;;;3.08;;
35022;SDS011;21214;44.912;8.204;2022-08-11T00:11:50;3.17;;;2.92;;
35022;SDS011;21214;44.912;8.204;2022-08-11T00:14:22;9.82;;;3.58;;
35022;SDS011;21214;44.912;8.204;2022-08-11T00:17:12;5.43;;;3.10;;
35022;SDS011;21214;44.912;8.204;2022-08-11T00:19:41;5.43;;;3.80;;
35022;SDS011;21214;44.912;8.204;2022-08-11T00:22:09;5.75;;;3.22;;
35022;SDS011;21214;44.912;8.204;2022-08-11T00:24:37;5.60;;;3.63;;
35022;SDS011;21214;44.912;8.204;2022-08-11T00:27:06;9.13;;;3.55;;
35022;SDS011;21214;44.912;8.204;2022-08-11T00:29:32;3.72;;;2.92;;
35022;SDS011;21214;44.912;8.204;2022-08-11T00:31:59;3.40;;;3.10;;
35022;SDS011;21214;44.912;8.204;2022-08-11T00:34:27;5.75;;;3.25;;
35022;SDS011;21214;44.912;8.204;2022-08-11T00:37:12;9.65;;;3.30;;
35022;SDS011;21214;44.912;8.204;2022-08-11T00:39:44;3.90;;;3.40;;
35022;SDS011;21214;44.912;8.204;2022-08-11T00:47:49;6.32;;;3.83;;
35022;SDS011;21214;44.912;8.204;2022-08-11T00:50:34;4.57;;;3.38;;
35022;SDS011;21214;44.912;8.204;2022-08-11T01:07:39;5.82;;;3.38;;
35022;SDS011;21214;44.912;8.204;2022-08-11T01:15:57;3.97;;;3.60;;
35022;SDS011;21214;44.912;8.204;2022-08-11T01:45:31;5.82;;;4.53;;
35022;SDS011;21214;44.912;8.204;2022-08-11T01:57:19;5.30;;;4.18;;
35022;SDS011;21214;44.912;8.204;2022-08-11T01:59:46;6.45;;;5.20;;
35022;SDS011;21214;44.912;8.204;2022-08-11T02:25:52;5.93;;;5.28;;
35022;SDS011;21214;44.912;8.204;2022-08-11T02:31:02;10.60;;;5.80;;
35022;SDS011;21214;44.912;8.204;2022-08-11T02:33:56;4.60;;;4.20;;
35022;SDS011;21214;44.912;8.204;2022-08-11T02:36:37;7.40;;;4.03;;
35022;SDS011;21214;44.912;8.204;2022-08-11T02:39:10;3.40;;;3.20;;
35022;SDS011;21214;44.912;8.204;2022-08-11T02:47:06;3.70;;;3.30;;
35022;SDS011;21214;44.912;8.204;2022-08-11T02:52:24;6.43;;;3.05;;
35022;SDS011;21214;44.912;8.204;2022-08-11T03:02:52;4.28;;;2.60;;
35022;SDS011;21214;44.912;8.204;2022-08-11T03:08:17;3.60;;;2.78;;
35022;SDS011;21214;44.912;8.204;2022-08-11T03:23:10;4.15;;;3.63;;
35022;SDS011;21214;44.912;8.204;2022-08-11T03:28:28;6.40;;;4.25;;
35022;SDS011;21214;44.912;8.204;2022-08-11T03:33:59;6.50;;;4.32;;
35022;SDS011;21214;44.912;8.204;2022-08-11T03:36:51;4.38;;;4.07;;
35022;SDS011;21214;44.912;8.204;2022-08-11T03:44:46;5.72;;;4.22;;
35022;SDS011;21214;44.912;8.204;2022-08-11T03:52:48;4.70;;;4.25;;
35022;SDS011;21214;44.912;8.204;2022-08-11T04:22:51;4.63;;;3.45;;
35022;SDS011;21214;44.912;8.204;2022-08-11T04:30:41;5.53;;;4.10;;
35022;SDS011;21214;44.912;8.204;2022-08-11T04:39:15;4.40;;;4.10;;
35022;SDS011;21214;44.912;8.204;2022-08-11T04:41:52;6.18;;;4.40;;
35022;SDS011;21214;44.912;8.204;2022-08-11T04:48:26;4.70;;;3.72;;
35022;SDS011;21214;44.912;8.204;2022-08-11T04:54:15;3.78;;;3.47;;
35022;SDS011;21214;44.912;8.204;2022-08-11T05:15:15;6.03;;;2.90;;
35022;SDS011;21214;44.912;8.204;2022-08-11T05:21:06;4.88;;;3.60;;
35022;SDS011;21214;44.912;8.204;2022-08-11T05:23:55;6.32;;;3.22;;
35022;SDS011;21214;44.912;8.204;2022-08-11T05:26:46;4.10;;;2.90;;
35022;SDS011;21214;44.912;8.204;2022-08-11T05:32:34;4.57;;;3.40;;
35022;SDS011;21214;44.912;8.204;2022-08-11T05:35:25;4.43;;;3.20;;
35022;SDS011;21214;44.912;8.204;2022-08-11T05:37:55;5.65;;;3.10;;
35022;SDS011;21214;44.912;8.204;2022-08-11T05:40:50;5.55;;;3.47;;
35022;SDS011;21214;44.912;8.204;2022-08-11T05:43:39;4.10;;;2.92;;
35022;SDS011;21214;44.912;8.204;2022-08-11T05:46:26;5.03;;;3.38;;
35022;SDS011;21214;44.912;8.204;2022-08-11T05:49:12;3.60;;;2.85;;
35022;SDS011;21214;44.912;8.204;2022-08-11T05:51:57;4.65;;;3.08;;
35022;SDS011;21214;44.912;8.204;2022-08-11T05:54:43;5.30;;;3.67;;
35022;SDS011;21214;44.912;8.204;2022-08-11T05:57:29;4.75;;;2.65;;
35022;SDS011;21214;44.912;8.204;2022-08-11T06:02:26;3.15;;;2.95;;
35022;SDS011;21214;44.912;8.204;2022-08-11T06:04:56;4.88;;;2.78;;
35022;SDS011;21214;44.912;8.204;2022-08-11T06:07:28;3.95;;;2.65;;
35022;SDS011;21214;44.912;8.204;2022-08-11T06:09:55;6.00;;;2.83;;
35022;SDS011;21214;44.912;8.204;2022-08-11T06:12:24;7.45;;;3.13;;
35022;SDS011;21214;44.912;8.204;2022-08-11T06:14:54;4.13;;;3.30;;
35022;SDS011;21214;44.912;8.204;2022-08-11T06:17:24;4.82;;;3.10;;
35022;SDS011;21214;44.912;8.204;2022-08-11T06:19:56;4.70;;;3.30;;
35022;SDS011;21214;44.912;8.204;2022-08-11T06:22:29;10.00;;;3.75;;
35022;SDS011;21214;44.912;8.204;2022-08-11T06:24:56;4.22;;;3.30;;
35022;SDS011;21214;44.912;8.204;2022-08-11T06:27:24;4.18;;;3.30;;
35022;SDS011;21214;44.912;8.204;2022-08-11T06:29:53;3.45;;;3.13;;
35022;SDS011;21214;44.912;8.204;2022-08-11T06:32:23;3.72;;;2.80;;
35022;SDS011;21214;44.912;8.204;2022-08-11T06:34:56;3.33;;;2.90;;
35022;SDS011;21214;44.912;8.204;2022-08-11T06:43:44;3.57;;;3.37;;
35022;SDS011;21214;44.912;8.204;2022-08-11T06:46:10;3.38;;;3.10;;
35022;SDS011;21214;44.912;8.204;2022-08-11T06:48:42;4.57;;;3.17;;
35022;SDS011;21214;44.912;8.204;2022-08-11T06:51:09;4.10;;;2.63;;
35022;SDS011;21214;44.912;8.204;2022-08-11T06:53:41;4.13;;;3.15;;
35022;SDS011;21214;44.912;8.204;2022-08-11T06:56:12;4.72;;;3.22;;
35022;SDS011;21214;44.912;8.204;2022-08-11T06:58:59;3.67;;;3.30;;
35022;SDS011;21214;44.912;8.204;2022-08-11T07:04:31;4.35;;;3.17;;
35022;SDS011;21214;44.912;8.204;2022-08-11T07:13:01;3.83;;;3.38;;
35022;SDS011;21214;44.912;8.204;2022-08-11T07:15:46;4.95;;;3.00;;
35022;SDS011;21214;44.912;8.204;2022-08-11T07:18:19;4.13;;;3.05;;
35022;SDS011;21214;44.912;8.204;2022-08-11T07:21:10;3.80;;;2.95;;
35022;SDS011;21214;44.912;8.204;2022-08-11T07:24:15;4.47;;;3.58;;
35022;SDS011;21214;44.912;8.204;2022-08-11T07:27:03;7.38;;;3.50;;
35022;SDS011;21214;44.912;8.204;2022-08-11T07:29:50;5.93;;;2.90;;
35022;SDS011;21214;44.912;8.204;2022-08-11T07:32:29;3.20;;;2.90;;
35022;SDS011;21214;44.912;8.204;2022-08-11T07:34:58;3.13;;;2.72;;
35022;SDS011;21214;44.912;8.204;2022-08-11T07:37:32;5.10;;;2.65;;
35022;SDS011;21214;44.912;8.204;2022-08-11T07:39:58;8.00;;;3.33;;
35022;SDS011;21214;44.912;8.204;2022-08-11T07:42:29;3.08;;;2.65;;
35022;SDS011;21214;44.912;8.204;2022-08-11T07:44:59;6.50;;;3.55;;
35022;SDS011;21214;44.912;8.204;2022-08-11T07:47:45;3.83;;;2.83;;
35022;SDS011;21214;44.912;8.204;2022-08-11T07:50:30;3.75;;;3.20;;
35022;SDS011;21214;44.912;8.204;2022-08-11T07:53:15;4.05;;;2.67;;
35022;SDS011;21214;44.912;8.204;2022-08-11T07:55:43;4.22;;;3.10;;
35022;SDS011;21214;44.912;8.204;2022-08-11T07:58:09;4.82;;;3.25;;
35022;SDS011;21214;44.912;8.204;2022-08-11T08:00:55;7.55;;;2.95;;
35022;SDS011;21214;44.912;8.204;2022-08-11T08:03:41;5.00;;;2.85;;
35022;SDS011;21214;44.912;8.204;2022-08-11T08:06:27;6.72;;;3.15;;
35022;SDS011;21214;44.912;8.204;2022-08-11T08:09:15;4.47;;;2.53;;
35022;SDS011;21214;44.912;8.204;2022-08-11T08:12:01;7.65;;;3.20;;
35022;SDS011;21214;44.912;8.204;2022-08-11T08:14:47;2.83;;;2.55;;
35022;SDS011;21214;44.912;8.204;2022-08-11T08:17:33;5.32;;;2.60;;
35022;SDS011;21214;44.912;8.204;2022-08-11T08:20:23;3.67;;;2.65;;
35022;SDS011;21214;44.912;8.204;2022-08-11T08:22:55;4.88;;;2.90;;
35022;SDS011;21214;44.912;8.204;2022-08-11T08:25:24;3.80;;;2.67;;
35022;SDS011;21214;44.912;8.204;2022-08-11T08:27:55;2.55;;;2.35;;
35022;SDS011;21214;44.912;8.204;2022-08-11T08:30:23;3.40;;;3.10;;
35022;SDS011;21214;44.912;8.204;2022-08-11T08:33:10;4.95;;;2.70;;
35022;SDS011;21214;44.912;8.204;2022-08-11T08:35:37;2.97;;;2.53;;
35022;SDS011;21214;44.912;8.204;2022-08-11T08:38:06;5.60;;;2.85;;
35022;SDS011;21214;44.912;8.204;2022-08-11T08:40:32;3.00;;;2.80;;
35022;SDS011;21214;44.912;8.204;2022-08-11T08:43:01;3.40;;;3.10;;
35022;SDS011;21214;44.912;8.204;2022-08-11T08:45:33;4.38;;;3.10;;
35022;SDS011;21214;44.912;8.204;2022-08-11T08:48:01;3.65;;;2.53;;
35022;SDS011;21214;44.912;8.204;2022-08-11T08:50:34;4.43;;;3.25;;
35022;SDS011;21214;44.912;8.204;2022-08-11T08:53:22;5.13;;;3.00;;
35022;SDS011;21214;44.912;8.204;2022-08-11T08:55:53;4.05;;;2.60;;
35022;SDS011;21214;44.912;8.204;2022-08-11T08:58:21;5.25;;;2.90;;
35022;SDS011;21214;44.912;8.204;2022-08-11T09:00:49;2.97;;;2.78;;
35022;SDS011;21214;44.912;8.204;2022-08-11T09:03:18;3.00;;;2.73;;
35022;SDS011;21214;44.912;8.204;2022-08-11T09:05:45;2.85;;;2.30;;
35022;SDS011;21214;44.912;8.204;2022-08-11T09:08:12;2.60;;;2.20;;
35022;SDS011;21214;44.912;8.204;2022-08-11T09:10:41;3.08;;;2.42;;
35022;SDS011;21214;44.912;8.204;2022-08-11T09:13:07;2.75;;;2.55;;
35022;SDS011;21214;44.912;8.204;2022-08-11T09:15:33;3.05;;;2.25;;
35022;SDS011;21214;44.912;8.204;2022-08-11T09:18:01;2.63;;;2.35;;
35022;SDS011;21214;44.912;8.204;2022-08-11T09:20:34;2.38;;;2.17;;
35022;SDS011;21214;44.912;8.204;2022-08-11T09:23:03;3.30;;;2.40;;
35022;SDS011;21214;44.912;8.204;2022-08-11T09:25:52;4.03;;;2.55;;
35022;SDS011;21214;44.912;8.204;2022-08-11T09:28:41;2.53;;;2.28;;
35022;SDS011;21214;44.912;8.204;2022-08-11T09:31:08;4.13;;;2.72;;
35022;SDS011;21214;44.912;8.204;2022-08-11T09:33:38;2.97;;;2.30;;
35022;SDS011;21214;44.912;8.204;2022-08-11T09:36:06;4.30;;;2.28;;
35022;SDS011;21214;44.912;8.204;2022-08-11T09:38:51;3.45;;;2.70;;
35022;SDS011;21214;44.912;8.204;2022-08-11T09:41:36;4.05;;;2.53;;
35022;SDS011;21214;44.912;8.204;2022-08-11T09:44:04;6.10;;;2.90;;
35022;SDS011;21214;44.912;8.204;2022-08-11T09:46:49;2.65;;;2.45;;
35022;SDS011;21214;44.912;8.204;2022-08-11T09:49:19;3.85;;;2.63;;
35022;SDS011;21214;44.912;8.204;2022-08-11T09:51:46;5.20;;;2.55;;
35022;SDS011;21214;44.912;8.204;2022-08-11T09:54:13;3.58;;;2.67;;
35022;SDS011;21214;44.912;8.204;2022-08-11T09:56:41;3.58;;;2.40;;
35022;SDS011;21214;44.912;8.204;2022-08-11T09:59:26;2.60;;;2.40;;
35022;SDS011;21214;44.912;8.204;2022-08-11T10:01:54;2.95;;;2.50;;
35022;SDS011;21214;44.912;8.204;2022-08-11T10:04:27;4.15;;;2.90;;
35022;SDS011;21214;44.912;8.204;2022-08-11T10:07:01;4.53;;;2.30;;
35022;SDS011;21214;44.912;8.204;2022-08-11T10:12:21;3.75;;;2.40;;
35022;SDS011;21214;44.912;8.204;2022-08-11T10:14:53;8.20;;;2.50;;
35022;SDS011;21214;44.912;8.204;2022-08-11T10:17:43;2.60;;;2.40;;
35022;SDS011;21214;44.912;8.204;2022-08-11T10:20:30;3.38;;;2.33;;
35022;SDS011;21214;44.912;8.204;2022-08-11T10:22:59;3.47;;;2.70;;
35022;SDS011;21214;44.912;8.204;2022-08-11T10:25:44;4.60;;;2.85;;
35022;SDS011;21214;44.912;8.204;2022-08-11T10:28:30;2.80;;;2.28;;
35022;SDS011;21214;44.912;8.204;2022-08-11T10:30:57;4.18;;;2.55;;
35022;SDS011;21214;44.912;8.204;2022-08-11T10:33:45;2.75;;;2.40;;
35022;SDS011;21214;44.912;8.204;2022-08-11T10:36:38;2.97;;;2.40;;
35022;SDS011;21214;44.912;8.204;2022-08-11T10:39:19;2.40;;;2.08;;
35022;SDS011;21214;44.912;8.204;2022-08-11T10:41:46;4.38;;;2.63;;
35022;SDS011;21214;44.912;8.204;2022-08-11T10:44:35;2.60;;;2.40;;
35022;SDS011;21214;44.912;8.204;2022-08-11T10:47:03;2.97;;;2.47;;
35022;SDS011;21214;44.912;8.204;2022-08-11T10:49:49;2.78;;;2.45;;
35022;SDS011;21214;44.912;8.204;2022-08-11T10:52:36;2.53;;;2.25;;
35022;SDS011;21214;44.912;8.204;2022-08-11T10:55:22;3.72;;;2.40;;
35022;SDS011;21214;44.912;8.204;2022-08-11T10:58:07;3.58;;;2.40;;
35022;SDS011;21214;44.912;8.204;2022-08-11T11:00:53;3.72;;;2.25;;
35022;SDS011;21214;44.912;8.204;2022-08-11T11:03:27;2.45;;;2.25;;
35022;SDS011;21214;44.912;8.204;2022-08-11T11:05:56;2.70;;;2.50;;
35022;SDS011;21214;44.912;8.204;2022-08-11T11:08:31;2.85;;;2.58;;
35022;SDS011;21214;44.912;8.204;2022-08-11T11:11:22;3.28;;;2.05;;
35022;SDS011;21214;44.912;8.204;2022-08-11T11:14:17;3.17;;;2.38;;
35022;SDS011;21214;44.912;8.204;2022-08-11T11:17:04;2.92;;;2.35;;
35022;SDS011;21214;44.912;8.204;2022-08-11T11:19:33;3.83;;;2.42;;
35022;SDS011;21214;44.912;8.204;2022-08-11T11:22:02;2.75;;;2.55;;
35022;SDS011;21214;44.912;8.204;2022-08-11T11:24:58;2.72;;;2.22;;
35022;SDS011;21214;44.912;8.204;2022-08-11T11:27:44;4.63;;;2.33;;
35022;SDS011;21214;44.912;8.204;2022-08-11T11:30:18;3.75;;;1.90;;
35022;SDS011;21214;44.912;8.204;2022-08-11T11:36:00;2.35;;;2.15;;
35022;SDS011;21214;44.912;8.204;2022-08-11T11:38:40;2.35;;;2.15;;
35022;SDS011;21214;44.912;8.204;2022-08-11T11:41:06;2.97;;;2.60;;
35022;SDS011;21214;44.912;8.204;2022-08-11T11:43:49;2.80;;;2.40;;
35022;SDS011;21214;44.912;8.204;2022-08-11T11:46:15;2.97;;;2.47;;
35022;SDS011;21214;44.912;8.204;2022-08-11T11:48:41;2.90;;;2.20;;
35022;SDS011;21214;44.912;8.204;2022-08-11T11:51:08;5.18;;;2.35;;
35022;SDS011;21214;44.912;8.204;2022-08-11T11:56:06;5.43;;;2.65;;
35022;SDS011;21214;44.912;8.204;2022-08-11T11:58:33;4.40;;;2.97;;
35022;SDS011;21214;44.912;8.204;2022-08-11T12:01:17;2.50;;;2.30;;
35022;SDS011;21214;44.912;8.204;2022-08-11T12:03:47;2.80;;;2.60;;
35022;SDS011;21214;44.912;8.204;2022-08-11T12:06:16;4.38;;;2.42;;
35022;SDS011;21214;44.912;8.204;2022-08-11T12:08:47;3.78;;;2.30;;
35022;SDS011;21214;44.912;8.204;2022-08-11T12:11:14;2.92;;;2.30;;
35022;SDS011;21214;44.912;8.204;2022-08-11T12:14:01;2.30;;;2.10;;
35022;SDS011;21214;44.912;8.204;2022-08-11T12:16:28;4.72;;;2.88;;
35022;SDS011;21214;44.912;8.204;2022-08-11T12:18:56;9.30;;;2.58;;
35022;SDS011;21214;44.912;8.204;2022-08-11T12:21:24;2.63;;;2.30;;
35022;SDS011;21214;44.912;8.204;2022-08-11T12:23:51;2.53;;;2.33;;
35022;SDS011;21214;44.912;8.204;2022-08-11T12:26:38;7.28;;;2.30;;
35022;SDS011;21214;44.912;8.204;2022-08-11T12:29:17;2.38;;;2.17;;
35022;SDS011;21214;44.912;8.204;2022-08-11T12:31:44;2.63;;;2.42;;
35022;SDS011;21214;44.912;8.204;2022-08-11T12:34:12;2.53;;;2.15;;
35022;SDS011;21214;44.912;8.204;2022-08-11T12:36:44;2.67;;;2.10;;
35022;SDS011;21214;44.912;8.204;2022-08-11T12:39:16;2.47;;;2.28;;
35022;SDS011;21214;44.912;8.204;2022-08-11T12:41:45;2.92;;;2.38;;
35022;SDS011;21214;44.912;8.204;2022-08-11T12:44:30;3.58;;;2.00;;
35022;SDS011;21214;44.912;8.204;2022-08-11T12:47:18;4.10;;;2.00;;
35022;SDS011;21214;44.912;8.204;2022-08-11T12:49:48;2.10;;;2.00;;
35022;SDS011;21214;44.912;8.204;2022-08-11T12:52:39;10.05;;;2.33;;
35022;SDS011;21214;44.912;8.204;2022-08-11T12:55:10;2.95;;;2.22;;
35022;SDS011;21214;44.912;8.204;2022-08-11T12:57:58;3.50;;;1.90;;
35022;SDS011;21214;44.912;8.204;2022-08-11T13:00:43;2.10;;;1.88;;
35022;SDS011;21214;44.912;8.204;2022-08-11T13:03:28;3.35;;;2.38;;
35022;SDS011;21214;44.912;8.204;2022-08-11T13:06:16;2.40;;;2.10;;
35022;SDS011;21214;44.912;8.204;2022-08-11T13:08:43;3.83;;;1.95;;
35022;SDS011;21214;44.912;8.204;2022-08-11T13:11:10;2.92;;;2.10;;
35022;SDS011;21214;44.912;8.204;2022-08-11T13:13:56;2.65;;;2.05;;
35022;SDS011;21214;44.912;8.204;2022-08-11T13:16:23;2.97;;;2.10;;
35022;SDS011;21214;44.912;8.204;2022-08-11T13:18:52;3.42;;;2.65;;
35022;SDS011;21214;44.912;8.204;2022-08-11T13:21:18;2.95;;;2.10;;
35022;SDS011;21214;44.912;8.204;2022-08-11T13:23:45;2.45;;;2.13;;
35022;SDS011;21214;44.912;8.204;2022-08-11T13:26:11;2.15;;;1.95;;
35022;SDS011;21214;44.912;8.204;2022-08-11T13:28:38;2.30;;;2.20;;
35022;SDS011;21214;44.912;8.204;2022-08-11T13:31:05;2.28;;;2.08;;
35022;SDS011;21214;44.912;8.204;2022-08-11T13:33:39;3.35;;;2.42;;
35022;SDS011;21214;44.912;8.204;2022-08-11T13:36:07;2.15;;;2.05;;
35022;SDS011;21214;44.912;8.204;2022-08-11T13:38:35;2.60;;;2.20;;
35022;SDS011;21214;44.912;8.204;2022-08-11T13:41:02;2.33;;;2.22;;
35022;SDS011;21214;44.912;8.204;2022-08-11T13:43:48;2.35;;;2.15;;
35022;SDS011;21214;44.912;8.204;2022-08-11T13:46:16;3.70;;;2.50;;
35022;SDS011;21214;44.912;8.204;2022-08-11T13:48:47;3.53;;;2.58;;
35022;SDS011;21214;44.912;8.204;2022-08-11T13:51:14;2.65;;;2.00;;
35022;SDS011;21214;44.912;8.204;2022-08-11T13:56:25;4.15;;;2.20;;
35022;SDS011;21214;44.912;8.204;2022-08-11T13:58:52;3.13;;;2.30;;
35022;SDS011;21214;44.912;8.204;2022-08-11T14:01:20;2.38;;;2.20;;
35022;SDS011;21214;44.912;8.204;2022-08-11T14:03:48;2.03;;;1.93;;
35022;SDS011;21214;44.912;8.204;2022-08-11T14:06:16;5.75;;;2.10;;
35022;SDS011;21214;44.912;8.204;2022-08-11T14:08:43;2.30;;;2.10;;
35022;SDS011;21214;44.912;8.204;2022-08-11T14:11:10;1.85;;;1.75;;
35022;SDS011;21214;44.912;8.204;2022-08-11T14:13:58;4.75;;;2.17;;
35022;SDS011;21214;44.912;8.204;2022-08-11T14:16:28;2.38;;;2.17;;
35022;SDS011;21214;44.912;8.204;2022-08-11T14:18:59;2.00;;;1.90;;
35022;SDS011;21214;44.912;8.204;2022-08-11T14:21:28;2.15;;;1.95;;
35022;SDS011;21214;44.912;8.204;2022-08-11T14:24:20;3.83;;;2.15;;
35022;SDS011;21214;44.912;8.204;2022-08-11T14:26:47;2.28;;;1.90;;
35022;SDS011;21214;44.912;8.204;2022-08-11T14:29:19;2.57;;;1.83;;
35022;SDS011;21214;44.912;8.204;2022-08-11T14:31:46;2.53;;;2.10;;
35022;SDS011;21214;44.912;8.204;2022-08-11T14:34:33;3.25;;;1.90;;
35022;SDS011;21214;44.912;8.204;2022-08-11T14:37:04;3.35;;;1.90;;
35022;SDS011;21214;44.912;8.204;2022-08-11T14:39:45;2.75;;;2.03;;
35022;SDS011;21214;44.912;8.204;2022-08-11T14:42:13;3.92;;;2.10;;
35022;SDS011;21214;44.912;8.204;2022-08-11T14:45:03;2.22;;;2.10;;
35022;SDS011;21214;44.912;8.204;2022-08-11T14:48:15;2.45;;;2.25;;
35022;SDS011;21214;44.912;8.204;2022-08-11T14:50:41;2.22;;;2.03;;
35022;SDS011;21214;44.912;8.204;2022-08-11T14:53:08;2.60;;;2.00;;
35022;SDS011;21214;44.912;8.204;2022-08-11T14:55:36;2.70;;;2.50;;
35022;SDS011;21214;44.912;8.204;2022-08-11T14:58:23;3.40;;;2.88;;
35022;SDS011;21214;44.912;8.204;2022-08-11T15:00:56;2.33;;;2.13;;
35022;SDS011;21214;44.912;8.204;2022-08-11T15:03:23;3.60;;;2.00;;
35022;SDS011;21214;44.912;8.204;2022-08-11T15:05:51;2.60;;;2.40;;
35022;SDS011;21214;44.912;8.204;2022-08-11T15:08:20;2.20;;;2.00;;
35022;SDS011;21214;44.912;8.204;2022-08-11T15:11:10;2.35;;;2.15;;
35022;SDS011;21214;44.912;8.204;2022-08-11T15:14:17;2.60;;;2.40;;
35022;SDS011;21214;44.912;8.204;2022-08-11T15:17:04;4.13;;;2.15;;
35022;SDS011;21214;44.912;8.204;2022-08-11T15:19:35;2.17;;;1.98;;
35022;SDS011;21214;44.912;8.204;2022-08-11T15:22:23;2.60;;;2.30;;
35022;SDS011;21214;44.912;8.204;2022-08-11T15:25:07;2.97;;;2.30;;
35022;SDS011;21214;44.912;8.204;2022-08-11T15:27:33;2.17;;;2.00;;
35022;SDS011;21214;44.912;8.204;2022-08-11T15:30:18;2.28;;;2.03;;
35022;SDS011;21214;44.912;8.204;2022-08-11T15:33:04;2.38;;;2.08;;
35022;SDS011;21214;44.912;8.204;2022-08-11T15:35:51;6.30;;;2.15;;
35022;SDS011;21214;44.912;8.204;2022-08-11T15:38:39;1.88;;;1.70;;
35022;SDS011;21214;44.912;8.204;2022-08-11T15:41:14;4.72;;;2.00;;
35022;SDS011;21214;44.912;8.204;2022-08-11T15:44:00;3.15;;;1.98;;
35022;SDS011;21214;44.912;8.204;2022-08-11T15:46:49;2.65;;;2.00;;
35022;SDS011;21214;44.912;8.204;2022-08-11T15:49:38;2.10;;;2.00;;
35022;SDS011;21214;44.912;8.204;2022-08-11T15:52:06;2.55;;;1.90;;
35022;SDS011;21214;44.912;8.204;2022-08-11T15:54:37;3.55;;;2.10;;
35022;SDS011;21214;44.912;8.204;2022-08-11T15:57:06;2.05;;;1.90;;
35022;SDS011;21214;44.912;8.204;2022-08-11T15:59:35;3.13;;;2.00;;
35022;SDS011;21214;44.912;8.204;2022-08-11T16:02:21;3.20;;;2.33;;
35022;SDS011;21214;44.912;8.204;2022-08-11T16:04:49;2.58;;;2.20;;
35022;SDS011;21214;44.912;8.204;2022-08-11T16:07:18;3.63;;;2.00;;
35022;SDS011;21214;44.912;8.204;2022-08-11T16:10:10;3.83;;;2.30;;
35022;SDS011;21214;44.912;8.204;2022-08-11T16:15:48;2.78;;;2.00;;
35022;SDS011;21214;44.912;8.204;2022-08-11T16:18:42;3.60;;;2.40;;
35022;SDS011;21214;44.912;8.204;2022-08-11T16:21:15;3.97;;;2.00;;
35022;SDS011;21214;44.912;8.204;2022-08-11T16:23:43;5.00;;;2.90;;
35022;SDS011;21214;44.912;8.204;2022-08-11T16:26:12;6.97;;;2.30;;
35022;SDS011;21214;44.912;8.204;2022-08-11T16:28:43;3.47;;;2.38;;
35022;SDS011;21214;44.912;8.204;2022-08-11T16:31:09;4.40;;;1.90;;
35022;SDS011;21214;44.912;8.204;2022-08-11T16:33:37;3.22;;;2.00;;
35022;SDS011;21214;44.912;8.204;2022-08-11T16:36:06;2.20;;;2.03;;
35022;SDS011;21214;44.912;8.204;2022-08-11T16:38:52;4.53;;;2.10;;
35022;SDS011;21214;44.912;8.204;2022-08-11T16:41:20;3.17;;;2.88;;
35022;SDS011;21214;44.912;8.204;2022-08-11T16:44:09;2.28;;;2.08;;
35022;SDS011;21214;44.912;8.204;2022-08-11T16:46:54;3.97;;;2.30;;
35022;SDS011;21214;44.912;8.204;2022-08-11T16:49:32;3.50;;;2.13;;
35022;SDS011;21214;44.912;8.204;2022-08-11T16:52:05;4.00;;;2.08;;
35022;SDS011;21214;44.912;8.204;2022-08-11T16:54:35;4.50;;;1.90;;
35022;SDS011;21214;44.912;8.204;2022-08-11T16:57:06;3.38;;;2.10;;
35022;SDS011;21214;44.912;8.204;2022-08-11T16:59:53;3.28;;;1.80;;
35022;SDS011;21214;44.912;8.204;2022-08-11T17:02:23;2.67;;;1.95;;
35022;SDS011;21214;44.912;8.204;2022-08-11T17:05:11;4.05;;;2.10;;
35022;SDS011;21214;44.912;8.204;2022-08-11T17:08:00;2.58;;;2.38;;
35022;SDS011;21214;44.912;8.204;2022-08-11T17:10:51;2.60;;;2.08;;
35022;SDS011;21214;44.912;8.204;2022-08-11T17:13:47;5.82;;;2.22;;
35022;SDS011;21214;44.912;8.204;2022-08-11T17:16:25;1.95;;;1.75;;
35022;SDS011;21214;44.912;8.204;2022-08-11T17:19:00;4.20;;;2.20;;
35022;SDS011;21214;44.912;8.204;2022-08-11T17:21:35;2.70;;;2.13;;
35022;SDS011;21214;44.912;8.204;2022-08-11T17:24:23;3.20;;;1.83;;
35022;SDS011;21214;44.912;8.204;2022-08-11T17:26:52;2.20;;;2.00;;
35022;SDS011;21214;44.912;8.204;2022-08-11T17:31:54;5.53;;;2.22;;
35022;SDS011;21214;44.912;8.204;2022-08-11T17:34:41;5.05;;;2.20;;
35022;SDS011;21214;44.912;8.204;2022-08-11T17:37:30;3.15;;;1.95;;
35022;SDS011;21214;44.912;8.204;2022-08-11T17:39:59;2.60;;;2.10;;
35022;SDS011;21214;44.912;8.204;2022-08-11T17:42:28;2.03;;;1.83;;
35022;SDS011;21214;44.912;8.204;2022-08-11T17:45:14;6.45;;;1.92;;
35022;SDS011;21214;44.912;8.204;2022-08-11T17:48:01;1.92;;;1.60;;
35022;SDS011;21214;44.912;8.204;2022-08-11T17:50:47;2.65;;;2.15;;
35022;SDS011;21214;44.912;8.204;2022-08-11T17:53:15;2.13;;;1.67;;
35022;SDS011;21214;44.912;8.204;2022-08-11T17:56:02;2.67;;;2.10;;
35022;SDS011;21214;44.912;8.204;2022-08-11T17:58:48;3.25;;;2.15;;
35022;SDS011;21214;44.912;8.204;2022-08-11T18:01:34;3.03;;;2.08;;
35022;SDS011;21214;44.912;8.204;2022-08-11T18:04:06;2.13;;;1.92;;
35022;SDS011;21214;44.912;8.204;2022-08-11T18:06:35;2.65;;;2.45;;
35022;SDS011;21214;44.912;8.204;2022-08-11T18:09:03;2.40;;;2.20;;
35022;SDS011;21214;44.912;8.204;2022-08-11T18:11:49;5.45;;;2.30;;
35022;SDS011;21214;44.912;8.204;2022-08-11T18:14:36;5.03;;;2.17;;
35022;SDS011;21214;44.912;8.204;2022-08-11T18:17:22;2.30;;;2.10;;
35022;SDS011;21214;44.912;8.204;2022-08-11T18:20:07;2.85;;;2.30;;
35022;SDS011;21214;44.912;8.204;2022-08-11T18:22:52;2.35;;;2.15;;
35022;SDS011;21214;44.912;8.204;2022-08-11T18:25:39;2.60;;;2.00;;
35022;SDS011;21214;44.912;8.204;2022-08-11T18:28:31;2.92;;;2.20;;
35022;SDS011;21214;44.912;8.204;2022-08-11T18:31:21;2.83;;;2.05;;
35022;SDS011;21214;44.912;8.204;2022-08-11T18:34:09;3.65;;;2.00;;
35022;SDS011;21214;44.912;8.204;2022-08-11T18:37:06;6.63;;;2.33;;
35022;SDS011;21214;44.912;8.204;2022-08-11T18:39:55;3.90;;;3.00;;
35022;SDS011;21214;44.912;8.204;2022-08-11T18:42:43;3.33;;;2.47;;
35022;SDS011;21214;44.912;8.204;2022-08-11T18:45:29;3.55;;;2.20;;
35022;SDS011;21214;44.912;8.204;2022-08-11T18:48:15;6.85;;;2.33;;
35022;SDS011;21214;44.912;8.204;2022-08-11T18:51:03;2.35;;;2.20;;
35022;SDS011;21214;44.912;8.204;2022-08-11T18:53:52;3.45;;;2.17;;
35022;SDS011;21214;44.912;8.204;2022-08-11T18:56:40;2.58;;;2.10;;
35022;SDS011;21214;44.912;8.204;2022-08-11T18:59:28;2.50;;;2.30;;
35022;SDS011;21214;44.912;8.204;2022-08-11T19:02:18;2.40;;;2.20;;
35022;SDS011;21214;44.912;8.204;2022-08-11T19:05:06;3.22;;;2.40;;
35022;SDS011;21214;44.912;8.204;2022-08-11T19:07:53;2.35;;;2.13;;
35022;SDS011;21214;44.912;8.204;2022-08-11T19:10:40;2.55;;;2.35;;
35022;SDS011;21214;44.912;8.204;2022-08-11T19:13:26;4.22;;;2.38;;
35022;SDS011;21214;44.912;8.204;2022-08-11T19:16:13;5.95;;;3.13;;
35022;SDS011;21214;44.912;8.204;2022-08-11T19:18:58;3.78;;;2.00;;
35022;SDS011;21214;44.912;8.204;2022-08-11T19:21:44;3.30;;;2.20;;
35022;SDS011;21214;44.912;8.204;2022-08-11T19:24:30;6.93;;;2.10;;
35022;SDS011;21214;44.912;8.204;2022-08-11T19:27:15;2.75;;;2.33;;
35022;SDS011;21214;44.912;8.204;2022-08-11T19:30:01;3.20;;;2.00;;
35022;SDS011;21214;44.912;8.204;2022-08-11T19:32:45;5.72;;;2.40;;
35022;SDS011;21214;44.912;8.204;2022-08-11T19:35:30;2.40;;;2.20;;
35022;SDS011;21214;44.912;8.204;2022-08-11T19:38:17;2.72;;;2.20;;
35022;SDS011;21214;44.912;8.204;2022-08-11T19:41:03;5.10;;;2.60;;
35022;SDS011;21214;44.912;8.204;2022-08-11T19:43:48;3.50;;;2.30;;
35022;SDS011;21214;44.912;8.204;2022-08-11T19:46:34;6.40;;;2.13;;
35022;SDS011;21214;44.912;8.204;2022-08-11T19:49:19;2.67;;;2.47;;